Time;durP1;ratioP1;P1;durP2;ratioP2;P2;SDS_P1;SDS_P2;PMS_P1;PMS_P2;Temp;Humidity;BMP_temperature;BMP_pressure;BME280_temperature;BME280_humidity;BME280_pressure;Samples;Min_cycle;Max_cycle;Signal;HPM_P1;HPM_P2
2024/02/28 00:00:13;;;;;;;49.13;20.55;;;;;;;;;;5024618;28;20210;-47
2024/02/28 00:02:40;;;;;;;219.73;30.88;;;;;;;;;;5025976;28;20053;-47
2024/02/28 00:05:06;;;;;;;83.75;21.08;;;;;;;;;;5026260;28;20046;-57
2024/02/28 00:07:34;;;;;;;53.83;19.55;;;;;;;;;;5026669;28;20029;-49
2024/02/28 00:10:01;;;;;;;59.53;21.63;;;;;;;;;;5026821;28;20029;-48
2024/02/28 00:12:28;;;;;;;45.22;19.15;;;;;;;;;;5026442;28;20022;-47
2024/02/28 00:14:54;;;;;;;47.47;19.88;;;;;;;;;;5027527;28;20030;-44
2024/02/28 00:17:21;;;;;;;49.95;20.58;;;;;;;;;;5026629;28;20245;-45
2024/02/28 00:19:48;;;;;;;52.92;20.20;;;;;;;;;;5025508;28;20246;-54
2024/02/28 00:22:14;;;;;;;44.78;19.55;;;;;;;;;;5026824;28;20049;-49
2024/02/28 00:24:41;;;;;;;40.80;20.15;;;;;;;;;;5025592;28;20029;-44
2024/02/28 00:27:07;;;;;;;104.32;23.20;;;;;;;;;;5025323;28;20330;-55
2024/02/28 00:29:34;;;;;;;51.72;18.20;;;;;;;;;;5025880;28;20037;-43
2024/02/28 00:32:01;;;;;;;49.25;18.92;;;;;;;;;;5026520;28;20332;-44
2024/02/28 00:34:27;;;;;;;41.03;18.20;;;;;;;;;;5021813;28;20089;-48
2024/02/28 00:36:54;;;;;;;42.15;17.70;;;;;;;;;;5022520;28;20038;-57
2024/02/28 00:39:20;;;;;;;38.53;18.00;;;;;;;;;;5026255;28;20025;-57
2024/02/28 00:41:47;;;;;;;41.35;17.48;;;;;;;;;;5026731;28;20072;-52
2024/02/28 00:44:13;;;;;;;42.42;18.73;;;;;;;;;;5026847;28;20337;-51
2024/02/28 00:46:40;;;;;;;50.40;19.40;;;;;;;;;;5023477;28;20080;-48
2024/02/28 00:49:07;;;;;;;38.80;17.88;;;;;;;;;;5021410;28;20179;-44
2024/02/28 00:51:36;;;;;;;36.65;18.63;;;;;;;;;;5024982;28;20022;-50
2024/02/28 00:54:02;;;;;;;38.47;18.42;;;;;;;;;;5025638;28;20037;-41
2024/02/28 00:56:29;;;;;;;44.38;19.83;;;;;;;;;;5025347;28;20045;-47
2024/02/28 00:58:56;;;;;;;35.63;18.00;;;;;;;;;;5021116;28;20025;-46
2024/02/28 01:01:22;;;;;;;36.33;18.38;;;;;;;;;;5017628;28;20053;-47
2024/02/28 01:03:49;;;;;;;39.55;19.35;;;;;;;;;;5017457;28;20136;-48
2024/02/28 01:06:16;;;;;;;36.92;18.67;;;;;;;;;;5022308;28;20331;-44
2024/02/28 01:08:43;;;;;;;36.63;18.45;;;;;;;;;;5016543;28;20068;-46
2024/02/28 01:11:10;;;;;;;41.13;19.63;;;;;;;;;;5021934;28;20029;-55
2024/02/28 01:13:37;;;;;;;41.65;19.45;;;;;;;;;;5023138;28;20034;-47
2024/02/28 01:16:04;;;;;;;45.92;19.17;;;;;;;;;;5017675;28;20026;-40
2024/02/28 01:18:32;;;;;;;50.15;19.67;;;;;;;;;;5017151;28;20085;-40
2024/02/28 01:20:58;;;;;;;33.72;18.08;;;;;;;;;;5020876;28;20030;-42
2024/02/28 01:23:25;;;;;;;45.22;18.67;;;;;;;;;;5015356;28;20097;-40
2024/02/28 01:25:51;;;;;;;44.28;18.85;;;;;;;;;;5016017;28;20018;-45
2024/02/28 01:28:18;;;;;;;50.70;19.38;;;;;;;;;;5017075;28;20085;-45
2024/02/28 01:30:45;;;;;;;42.25;17.58;;;;;;;;;;5017099;28;20429;-44
2024/02/28 01:33:13;;;;;;;45.95;18.23;;;;;;;;;;5018478;28;20030;-47
2024/02/28 01:35:40;;;;;;;55.60;18.73;;;;;;;;;;5021811;28;20068;-41
2024/02/28 01:38:07;;;;;;;45.80;19.00;;;;;;;;;;5016066;28;20092;-40
2024/02/28 01:40:33;;;;;;;57.08;19.63;;;;;;;;;;5015679;28;20060;-43
2024/02/28 01:43:09;;;;;;;83.85;20.73;;;;;;;;;;5013764;28;20271;-39
2024/02/28 01:45:36;;;;;;;59.33;20.05;;;;;;;;;;5014235;28;20082;-45
2024/02/28 01:48:05;;;;;;;67.72;21.35;;;;;;;;;;5016567;28;20045;-45
2024/02/28 01:50:32;;;;;;;59.67;21.50;;;;;;;;;;5017562;28;20009;-40
2024/02/28 01:52:59;;;;;;;162.93;28.98;;;;;;;;;;5016860;28;20026;-46
2024/02/28 01:55:26;;;;;;;78.20;23.30;;;;;;;;;;5014880;28;20026;-48
2024/02/28 01:57:53;;;;;;;49.50;20.15;;;;;;;;;;5015618;28;20029;-51
2024/02/28 02:00:20;;;;;;;40.22;19.00;;;;;;;;;;5016731;28;20246;-48
2024/02/28 02:02:47;;;;;;;40.00;18.17;;;;;;;;;;5014789;28;20030;-43
2024/02/28 02:05:16;;;;;;;33.75;17.13;;;;;;;;;;5016801;28;20241;-48
2024/02/28 02:07:43;;;;;;;36.17;17.67;;;;;;;;;;5023956;28;20128;-43
2024/02/28 02:10:12;;;;;;;31.02;16.88;;;;;;;;;;5016397;28;20018;-44
2024/02/28 02:12:38;;;;;;;28.23;16.40;;;;;;;;;;5016467;28;20036;-49
2024/02/28 02:15:05;;;;;;;34.60;17.70;;;;;;;;;;5014545;28;20307;-42
2024/02/28 02:17:32;;;;;;;31.20;16.80;;;;;;;;;;5016865;28;20089;-45
2024/02/28 02:19:58;;;;;;;35.67;17.95;;;;;;;;;;5018976;28;20055;-43
2024/02/28 02:22:28;;;;;;;29.60;16.55;;;;;;;;;;5016118;28;20045;-45
2024/02/28 02:24:54;;;;;;;25.75;17.08;;;;;;;;;;5014709;28;20018;-46
2024/02/28 02:27:21;;;;;;;44.50;17.70;;;;;;;;;;5014171;28;20307;-48
2024/02/28 02:29:47;;;;;;;31.88;17.35;;;;;;;;;;5013491;28;20022;-45
2024/02/28 02:32:14;;;;;;;31.65;16.52;;;;;;;;;;5014703;28;20014;-49
2024/02/28 02:34:41;;;;;;;25.10;16.55;;;;;;;;;;5015986;28;20014;-49
2024/02/28 02:37:08;;;;;;;25.75;17.33;;;;;;;;;;5014087;28;20026;-49
2024/02/28 02:39:35;;;;;;;26.65;15.95;;;;;;;;;;5020488;28;20022;-51
2024/02/28 02:42:02;;;;;;;32.88;17.85;;;;;;;;;;5013272;28;20022;-48
2024/02/28 02:44:28;;;;;;;28.00;17.35;;;;;;;;;;5014864;28;20294;-43
2024/02/28 02:47:05;;;;;;;30.67;17.35;;;;;;;;;;5101376;28;20723;-48
2024/02/28 02:49:31;;;;;;;34.35;17.35;;;;;;;;;;5100964;28;20205;-54
2024/02/28 02:51:58;;;;;;;39.05;17.77;;;;;;;;;;5100997;28;20373;-48
2024/02/28 02:54:25;;;;;;;31.17;16.27;;;;;;;;;;5101285;28;20031;-51
2024/02/28 02:56:51;;;;;;;32.80;17.48;;;;;;;;;;5100717;28;20047;-48
2024/02/28 02:59:21;;;;;;;31.20;18.25;;;;;;;;;;5096330;28;20023;-45
2024/02/28 03:01:48;;;;;;;27.25;16.10;;;;;;;;;;5100911;28;20088;-51
2024/02/28 03:04:15;;;;;;;29.48;16.90;;;;;;;;;;5074648;28;20028;-50
2024/02/28 03:06:41;;;;;;;32.67;16.23;;;;;;;;;;5060535;28;20036;-47
2024/02/28 03:09:08;;;;;;;30.27;17.27;;;;;;;;;;5060177;28;20013;-51
2024/02/28 03:11:35;;;;;;;28.15;16.65;;;;;;;;;;5060675;28;20021;-52
2024/02/28 03:14:02;;;;;;;25.75;16.02;;;;;;;;;;5060064;28;20036;-47
2024/02/28 03:16:29;;;;;;;23.77;15.93;;;;;;;;;;5060547;28;20063;-57
2024/02/28 03:18:56;;;;;;;23.30;16.55;;;;;;;;;;5060059;28;20017;-47
2024/02/28 03:21:22;;;;;;;27.58;17.15;;;;;;;;;;5060289;28;20284;-46
2024/02/28 03:23:49;;;;;;;30.95;17.05;;;;;;;;;;5060142;28;20048;-46
2024/02/28 03:26:15;;;;;;;28.65;16.42;;;;;;;;;;5060306;28;20025;-42
2024/02/28 03:28:42;;;;;;;29.42;17.55;;;;;;;;;;5059922;28;20025;-44
2024/02/28 03:31:09;;;;;;;27.95;16.65;;;;;;;;;;5072978;28;20020;-44
2024/02/28 03:33:35;;;;;;;28.67;17.02;;;;;;;;;;5079585;28;20347;-42
2024/02/28 03:36:02;;;;;;;28.35;16.80;;;;;;;;;;5079724;28;20033;-51
2024/02/28 03:38:29;;;;;;;34.80;17.30;;;;;;;;;;5079261;28;20021;-41
2024/02/28 03:40:55;;;;;;;28.67;17.40;;;;;;;;;;5079635;28;20036;-48
2024/02/28 03:43:22;;;;;;;27.38;16.50;;;;;;;;;;5079118;28;20083;-44
2024/02/28 03:45:49;;;;;;;31.48;17.20;;;;;;;;;;5078867;28;20036;-49
2024/02/28 03:48:16;;;;;;;26.15;17.05;;;;;;;;;;5078941;28;20017;-51
2024/02/28 03:50:43;;;;;;;28.15;16.88;;;;;;;;;;5069821;28;20016;-40
2024/02/28 03:53:09;;;;;;;25.83;16.50;;;;;;;;;;5069678;28;20021;-42
2024/02/28 03:55:37;;;;;;;29.33;16.10;;;;;;;;;;5080169;28;20097;-48
2024/02/28 03:58:06;;;;;;;22.15;15.75;;;;;;;;;;5060860;28;20100;-41
2024/02/28 04:00:33;;;;;;;27.30;17.17;;;;;;;;;;5058226;28;20092;-41
2024/02/28 04:03:00;;;;;;;29.60;16.85;;;;;;;;;;5057891;28;20027;-39
2024/02/28 04:05:26;;;;;;;26.45;16.75;;;;;;;;;;5066293;28;20120;-39
2024/02/28 04:07:53;;;;;;;24.20;16.27;;;;;;;;;;5066499;28;20021;-43
2024/02/28 04:10:19;;;;;;;26.20;16.45;;;;;;;;;;5066650;28;20360;-39
2024/02/28 04:12:46;;;;;;;30.25;16.52;;;;;;;;;;5066498;28;20209;-39
2024/02/28 04:15:13;;;;;;;27.67;16.00;;;;;;;;;;5066114;28;20032;-40
2024/02/28 04:17:40;;;;;;;22.48;15.73;;;;;;;;;;5066570;28;20368;-40
2024/02/28 04:20:10;;;;;;;21.73;14.95;;;;;;;;;;5063037;28;20190;-43
2024/02/28 04:22:37;;;;;;;24.77;15.88;;;;;;;;;;5066205;28;20021;-40
2024/02/28 04:25:04;;;;;;;25.48;15.63;;;;;;;;;;5065912;28;20021;-45
2024/02/28 04:27:31;;;;;;;28.10;15.75;;;;;;;;;;5066011;28;20017;-44
2024/02/28 04:29:57;;;;;;;21.55;15.60;;;;;;;;;;5066111;28;20025;-40
2024/02/28 04:32:24;;;;;;;21.65;15.77;;;;;;;;;;5066263;28;20197;-50
2024/02/28 04:34:51;;;;;;;29.10;15.93;;;;;;;;;;5065884;28;20048;-46
2024/02/28 04:37:18;;;;;;;24.67;16.23;;;;;;;;;;5058480;28;20325;-55
2024/02/28 04:39:44;;;;;;;26.55;16.58;;;;;;;;;;5045970;28;20089;-50
2024/02/28 04:42:11;;;;;;;23.63;15.48;;;;;;;;;;5045842;28;20230;-51
2024/02/28 04:44:38;;;;;;;24.90;15.20;;;;;;;;;;5045640;28;20217;-47
2024/02/28 04:47:04;;;;;;;23.88;15.85;;;;;;;;;;5045837;28;20028;-55
2024/02/28 04:49:31;;;;;;;25.75;15.50;;;;;;;;;;5045647;28;20076;-44
2024/02/28 04:51:58;;;;;;;23.58;15.68;;;;;;;;;;5045624;28;20052;-40
2024/02/28 04:54:25;;;;;;;23.88;15.40;;;;;;;;;;5058819;28;20016;-40
2024/02/28 04:56:51;;;;;;;20.42;15.93;;;;;;;;;;5066076;28;20035;-47
2024/02/28 04:59:18;;;;;;;23.77;16.10;;;;;;;;;;5065388;28;20047;-40
2024/02/28 05:01:45;;;;;;;24.40;15.65;;;;;;;;;;5065967;28;20028;-43
2024/02/28 05:04:12;;;;;;;23.98;16.25;;;;;;;;;;5065296;28;20036;-42
2024/02/28 05:06:39;;;;;;;21.33;15.73;;;;;;;;;;5065649;28;20213;-41
2024/02/28 05:09:05;;;;;;;21.90;15.57;;;;;;;;;;5064330;28;20013;-41
2024/02/28 05:11:32;;;;;;;26.55;16.65;;;;;;;;;;5065636;28;20029;-39
2024/02/28 05:13:59;;;;;;;21.83;15.60;;;;;;;;;;5065085;28;20017;-45
2024/02/28 05:16:25;;;;;;;25.83;15.77;;;;;;;;;;5065695;28;20029;-48
2024/02/28 05:18:52;;;;;;;22.13;15.45;;;;;;;;;;5065205;28;20024;-48
2024/02/28 05:21:18;;;;;;;18.42;14.85;;;;;;;;;;5065304;28;20139;-48
2024/02/28 05:23:45;;;;;;;24.80;16.20;;;;;;;;;;5065187;28;20025;-48
2024/02/28 05:26:12;;;;;;;25.33;16.52;;;;;;;;;;5064450;28;20086;-49
2024/02/28 05:28:38;;;;;;;19.58;15.68;;;;;;;;;;5055377;28;20217;-50
2024/02/28 05:31:23;;;;;;;26.30;15.93;;;;;;;;;;5048782;28;20170;-45
2024/02/28 05:33:56;;;;;;;23.23;16.10;;;;;;;;;;5044905;28;20089;-47
2024/02/28 05:36:23;;;;;;;24.45;15.65;;;;;;;;;;5057813;28;20174;-49
2024/02/28 05:38:50;;;;;;;23.20;15.90;;;;;;;;;;5084185;28;20351;-53
2024/02/28 05:41:17;;;;;;;27.25;16.55;;;;;;;;;;5071498;28;20088;-54
2024/02/28 05:43:45;;;;;;;20.58;15.48;;;;;;;;;;5064619;28;20021;-49
2024/02/28 05:46:12;;;;;;;22.35;15.27;;;;;;;;;;5064323;28;20060;-50
2024/02/28 05:48:39;;;;;;;22.88;15.82;;;;;;;;;;5064458;28;20017;-55
2024/02/28 05:51:05;;;;;;;23.02;15.77;;;;;;;;;;5069912;28;20070;-43
2024/02/28 05:53:35;;;;;;;23.27;15.35;;;;;;;;;;5084539;28;20032;-57
2024/02/28 05:56:02;;;;;;;24.55;15.20;;;;;;;;;;5084596;28;20059;-49
2024/02/28 05:58:29;;;;;;;22.95;15.55;;;;;;;;;;5084440;28;20020;-40
2024/02/28 06:00:56;;;;;;;22.52;15.45;;;;;;;;;;5084700;28;20354;-44
2024/02/28 06:03:23;;;;;;;21.15;15.13;;;;;;;;;;5084153;28;20324;-53
2024/02/28 06:05:49;;;;;;;24.80;16.33;;;;;;;;;;5084664;28;20024;-53
2024/02/28 06:08:16;;;;;;;23.45;15.85;;;;;;;;;;5084638;28;20020;-52
2024/02/28 06:10:42;;;;;;;22.20;15.90;;;;;;;;;;5084331;28;20032;-56
2024/02/28 06:13:09;;;;;;;23.75;16.08;;;;;;;;;;5084312;28;20017;-48
2024/02/28 06:15:36;;;;;;;21.45;15.18;;;;;;;;;;5084308;28;20091;-55
2024/02/28 06:18:02;;;;;;;20.33;16.08;;;;;;;;;;5084284;28;20043;-52
2024/02/28 06:20:29;;;;;;;20.98;15.65;;;;;;;;;;5084109;28;20025;-48
2024/02/28 06:22:56;;;;;;;22.08;15.55;;;;;;;;;;5068217;28;20025;-47
2024/02/28 06:25:23;;;;;;;21.02;15.48;;;;;;;;;;5063943;28;20032;-44
2024/02/28 06:27:50;;;;;;;25.70;16.73;;;;;;;;;;5063919;28;20357;-47
2024/02/28 06:30:17;;;;;;;24.17;15.40;;;;;;;;;;5063974;28;20094;-38
2024/02/28 06:32:44;;;;;;;23.52;15.70;;;;;;;;;;5063700;28;20023;-40
2024/02/28 06:35:11;;;;;;;23.23;15.10;;;;;;;;;;5064229;28;20045;-43
2024/02/28 06:37:37;;;;;;;25.08;16.00;;;;;;;;;;5063871;28;20036;-46
2024/02/28 06:40:04;;;;;;;20.75;15.32;;;;;;;;;;5063812;28;20036;-54
2024/02/28 06:42:31;;;;;;;21.02;15.40;;;;;;;;;;5063825;28;20031;-53
2024/02/28 06:44:57;;;;;;;24.88;15.75;;;;;;;;;;5063589;28;20124;-45
2024/02/28 06:47:24;;;;;;;19.38;15.55;;;;;;;;;;5063737;28;20080;-48
2024/02/28 06:49:52;;;;;;;22.52;16.05;;;;;;;;;;5070678;28;20326;-40
2024/02/28 06:52:18;;;;;;;19.58;15.43;;;;;;;;;;5080505;28;20048;-40
2024/02/28 06:54:45;;;;;;;21.08;15.70;;;;;;;;;;5083736;28;20016;-47
2024/02/28 06:57:12;;;;;;;21.08;15.98;;;;;;;;;;5083588;28;20021;-40
2024/02/28 06:59:39;;;;;;;19.42;15.13;;;;;;;;;;5083896;28;20021;-42
2024/02/28 07:02:06;;;;;;;20.35;15.90;;;;;;;;;;5083688;28;20106;-38
2024/02/28 07:04:32;;;;;;;20.80;16.40;;;;;;;;;;5083327;28;20016;-43
2024/02/28 07:06:59;;;;;;;21.10;15.52;;;;;;;;;;5083669;28;20020;-49
2024/02/28 07:09:29;;;;;;;22.23;15.70;;;;;;;;;;5083644;28;20118;-40
2024/02/28 07:11:56;;;;;;;25.15;15.93;;;;;;;;;;5083534;28;20028;-41
2024/02/28 07:14:22;;;;;;;23.10;15.85;;;;;;;;;;5083677;28;20023;-46
2024/02/28 07:16:49;;;;;;;20.63;15.77;;;;;;;;;;5084060;28;20213;-42
2024/02/28 07:19:16;;;;;;;20.45;15.50;;;;;;;;;;5083673;28;20024;-40
2024/02/28 07:21:42;;;;;;;22.27;16.05;;;;;;;;;;5083920;28;20020;-39
2024/02/28 07:24:09;;;;;;;25.83;16.60;;;;;;;;;;5083518;28;20047;-41
2024/02/28 07:26:35;;;;;;;23.80;16.42;;;;;;;;;;5083675;28;20033;-42
2024/02/28 07:29:02;;;;;;;20.20;15.70;;;;;;;;;;5083368;28;20024;-44
2024/02/28 07:31:29;;;;;;;22.88;15.50;;;;;;;;;;5083748;28;20087;-42
2024/02/28 07:33:55;;;;;;;22.38;15.90;;;;;;;;;;5087045;28;20020;-46
2024/02/28 07:36:22;;;;;;;22.25;15.68;;;;;;;;;;5075185;28;20041;-39
2024/02/28 07:38:49;;;;;;;22.80;15.20;;;;;;;;;;5055895;28;20080;-39
2024/02/28 07:41:15;;;;;;;25.08;15.55;;;;;;;;;;5047346;28;20033;-41
2024/02/28 07:43:46;;;;;;;20.48;16.08;;;;;;;;;;5047157;28;20025;-41
2024/02/28 07:46:12;;;;;;;20.35;15.57;;;;;;;;;;5046796;28;20252;-44
2024/02/28 07:48:39;;;;;;;22.48;16.30;;;;;;;;;;5046883;28;20022;-44
2024/02/28 07:51:06;;;;;;;22.95;16.73;;;;;;;;;;5046937;28;20079;-39
2024/02/28 07:53:33;;;;;;;20.00;15.48;;;;;;;;;;5046852;28;20306;-39
2024/02/28 07:56:00;;;;;;;27.85;16.00;;;;;;;;;;5046996;28;20041;-44
2024/02/28 07:58:26;;;;;;;21.02;15.82;;;;;;;;;;5046837;28;20083;-45
2024/02/28 08:00:53;;;;;;;21.63;15.73;;;;;;;;;;5047010;28;20198;-39
2024/02/28 08:03:20;;;;;;;24.58;16.13;;;;;;;;;;5046453;28;20029;-41
2024/02/28 08:05:48;;;;;;;25.98;16.30;;;;;;;;;;5046847;28;20033;-39
2024/02/28 08:08:15;;;;;;;24.63;16.50;;;;;;;;;;5046599;28;20182;-44
2024/02/28 08:10:41;;;;;;;23.02;15.82;;;;;;;;;;5046607;28;20029;-39
2024/02/28 08:13:08;;;;;;;22.88;16.05;;;;;;;;;;5046447;28;20080;-42
2024/02/28 08:15:34;;;;;;;24.88;16.83;;;;;;;;;;5046612;28;20025;-43
2024/02/28 08:18:01;;;;;;;24.60;16.73;;;;;;;;;;5046246;28;20043;-40
2024/02/28 08:20:27;;;;;;;19.70;15.77;;;;;;;;;;5046573;28;20301;-42
2024/02/28 08:22:57;;;;;;;25.50;17.02;;;;;;;;;;5046695;28;20067;-37
2024/02/28 08:25:23;;;;;;;23.73;15.60;;;;;;;;;;5046407;28;20253;-39
2024/02/28 08:27:50;;;;;;;22.10;16.15;;;;;;;;;;5046215;28;20077;-39
2024/02/28 08:30:16;;;;;;;24.52;15.80;;;;;;;;;;5046132;28;20022;-44
2024/02/28 08:32:43;;;;;;;21.38;15.73;;;;;;;;;;5045983;28;20191;-40
2024/02/28 08:35:10;;;;;;;22.17;16.10;;;;;;;;;;5046149;28;20113;-39
2024/02/28 08:37:39;;;;;;;22.30;16.20;;;;;;;;;;5046266;28;20021;-41
2024/02/28 08:40:06;;;;;;;23.02;15.73;;;;;;;;;;5046019;28;20048;-40
2024/02/28 08:42:32;;;;;;;23.70;15.80;;;;;;;;;;5045837;28;20318;-39
2024/02/28 08:45:03;;;;;;;22.60;16.20;;;;;;;;;;5045711;28;20072;-39
2024/02/28 08:47:30;;;;;;;23.45;16.80;;;;;;;;;;5045710;28;20041;-40
2024/02/28 08:49:57;;;;;;;29.60;16.00;;;;;;;;;;5045822;28;20302;-47
2024/02/28 08:52:24;;;;;;;20.73;15.50;;;;;;;;;;5045803;28;20255;-40
2024/02/28 08:54:50;;;;;;;21.45;16.60;;;;;;;;;;5045553;28;20096;-42
2024/02/28 08:57:17;;;;;;;21.95;16.30;;;;;;;;;;5045713;28;20063;-47
2024/02/28 08:59:43;;;;;;;23.48;15.57;;;;;;;;;;5045628;28;20024;-46
2024/02/28 09:02:11;;;;;;;21.70;16.15;;;;;;;;;;5045473;28;20025;-38
2024/02/28 09:04:37;;;;;;;25.25;15.32;;;;;;;;;;5045431;28;20036;-40
2024/02/28 09:07:04;;;;;;;21.65;16.15;;;;;;;;;;5045506;28;20041;-43
2024/02/28 09:09:33;;;;;;;23.58;15.80;;;;;;;;;;5045452;28;20076;-37
2024/02/28 09:12:03;;;;;;;21.58;15.75;;;;;;;;;;5045337;28;20029;-39
2024/02/28 09:14:29;;;;;;;18.98;14.98;;;;;;;;;;5045340;28;20021;-41
2024/02/28 09:17:02;;;;;;;20.25;15.50;;;;;;;;;;5045469;28;20036;-39
2024/02/28 09:19:32;;;;;;;22.17;15.52;;;;;;;;;;5045257;28;20025;-40
2024/02/28 09:21:59;;;;;;;19.67;15.65;;;;;;;;;;5045197;28;20041;-39
2024/02/28 09:24:26;;;;;;;22.85;15.82;;;;;;;;;;5044972;28;20028;-40
2024/02/28 09:26:53;;;;;;;24.05;15.23;;;;;;;;;;5045466;28;20026;-39
2024/02/28 09:29:19;;;;;;;20.35;15.50;;;;;;;;;;5045145;28;20017;-41
2024/02/28 09:31:46;;;;;;;22.17;15.60;;;;;;;;;;5045090;28;20089;-41
2024/02/28 09:34:13;;;;;;;22.15;15.60;;;;;;;;;;5045142;28;20285;-45
2024/02/28 09:36:45;;;;;;;23.38;15.40;;;;;;;;;;5047424;28;20024;-52
2024/02/28 09:39:12;;;;;;;25.40;15.90;;;;;;;;;;5053311;28;20213;-41
2024/02/28 09:41:39;;;;;;;24.00;16.00;;;;;;;;;;5065074;28;20032;-39
2024/02/28 09:44:07;;;;;;;20.65;15.45;;;;;;;;;;5064640;28;20092;-50
2024/02/28 09:46:37;;;;;;;21.98;14.68;;;;;;;;;;5064250;28;20041;-45
2024/02/28 09:49:05;;;;;;;26.00;15.02;;;;;;;;;;5064583;28;20027;-47
2024/02/28 09:51:35;;;;;;;19.92;14.85;;;;;;;;;;5064890;28;20021;-49
2024/02/28 09:54:05;;;;;;;21.13;15.23;;;;;;;;;;5064406;28;20036;-45
2024/02/28 09:56:32;;;;;;;20.38;15.23;;;;;;;;;;5064525;28;20375;-49
2024/02/28 09:58:59;;;;;;;24.75;15.75;;;;;;;;;;5064315;28;20217;-47
2024/02/28 10:01:26;;;;;;;22.63;15.63;;;;;;;;;;5064522;28;20044;-45
2024/02/28 10:03:54;;;;;;;26.48;15.95;;;;;;;;;;5064218;28;20331;-45
2024/02/28 10:06:21;;;;;;;22.73;15.57;;;;;;;;;;5064459;28;20043;-47
2024/02/28 10:08:48;;;;;;;21.52;15.40;;;;;;;;;;5064260;28;20277;-43
2024/02/28 10:11:24;;;;;;;22.98;15.10;;;;;;;;;;5064488;28;20317;-47
2024/02/28 10:13:50;;;;;;;28.10;15.98;;;;;;;;;;5064251;28;20302;-43
2024/02/28 10:16:17;;;;;;;25.38;16.05;;;;;;;;;;5064481;28;20032;-41
2024/02/28 10:18:44;;;;;;;26.50;15.38;;;;;;;;;;5064223;28;20313;-46
2024/02/28 10:21:17;;;;;;;24.70;15.77;;;;;;;;;;5063823;28;20037;-45
2024/02/28 10:23:45;;;;;;;25.75;15.65;;;;;;;;;;5063884;28;20060;-45
2024/02/28 10:26:12;;;;;;;28.30;15.95;;;;;;;;;;5064172;28;20055;-49
2024/02/28 10:28:39;;;;;;;29.08;16.35;;;;;;;;;;5063806;28;20017;-44
2024/02/28 10:31:07;;;;;;;35.17;16.90;;;;;;;;;;5063613;28;20028;-47
2024/02/28 10:33:35;;;;;;;30.33;16.40;;;;;;;;;;5064150;28;20055;-41
2024/02/28 10:36:03;;;;;;;21.20;15.43;;;;;;;;;;5064191;28;20201;-45
2024/02/28 10:38:33;;;;;;;24.02;16.25;;;;;;;;;;5063772;28;20029;-38
2024/02/28 10:41:01;;;;;;;32.13;17.00;;;;;;;;;;5064091;28;20025;-45
2024/02/28 10:43:31;;;;;;;30.23;16.38;;;;;;;;;;5056803;28;20071;-49
2024/02/28 10:46:01;;;;;;;38.00;17.35;;;;;;;;;;5048980;28;20105;-41
2024/02/28 10:48:28;;;;;;;33.17;17.17;;;;;;;;;;5043751;28;20259;-40
2024/02/28 10:50:55;;;;;;;43.17;17.70;;;;;;;;;;5044060;28;20040;-40
2024/02/28 10:53:47;;;;;;;47.35;18.10;;;;;;;;;;5043766;28;20015;-48
2024/02/28 10:56:15;;;;;;;54.17;17.80;;;;;;;;;;5043134;28;20048;-48
2024/02/28 10:58:48;;;;;;;49.05;18.17;;;;;;;;;;5043710;28;20031;-47
2024/02/28 11:01:15;;;;;;;49.95;18.00;;;;;;;;;;5043834;28;20052;-48
2024/02/28 11:03:41;;;;;;;52.78;18.75;;;;;;;;;;5043627;28;20018;-40
2024/02/28 11:06:18;;;;;;;42.15;17.83;;;;;;;;;;5043563;28;20029;-42
2024/02/28 11:08:52;;;;;;;50.40;17.98;;;;;;;;;;5047246;28;20076;-45
2024/02/28 11:11:22;;;;;;;58.53;19.17;;;;;;;;;;5048046;28;20025;-44
2024/02/28 11:13:53;;;;;;;38.95;17.02;;;;;;;;;;5047437;28;20018;-47
2024/02/28 11:16:27;;;;;;;48.38;18.73;;;;;;;;;;5065495;28;20035;-46
2024/02/28 11:18:54;;;;;;;60.53;19.48;;;;;;;;;;5067576;28;20038;-41
2024/02/28 11:21:24;;;;;;;73.35;19.60;;;;;;;;;;5067568;28;20035;-48
2024/02/28 11:23:51;;;;;;;60.55;19.92;;;;;;;;;;5067277;28;20045;-40
2024/02/28 11:26:18;;;;;;;41.88;18.42;;;;;;;;;;5067546;28;20032;-41
2024/02/28 11:28:45;;;;;;;51.22;18.02;;;;;;;;;;5067107;28;20025;-44
2024/02/28 11:31:11;;;;;;;44.25;18.63;;;;;;;;;;5067455;28;20021;-39
2024/02/28 11:33:38;;;;;;;60.72;19.10;;;;;;;;;;5067230;28;20027;-46
2024/02/28 11:36:05;;;;;;;54.15;19.17;;;;;;;;;;5067280;28;20028;-46
2024/02/28 11:38:32;;;;;;;54.47;19.23;;;;;;;;;;5067159;28;20323;-40
2024/02/28 11:40:58;;;;;;;40.88;19.48;;;;;;;;;;5066807;28;20033;-41
2024/02/28 11:43:25;;;;;;;57.65;22.50;;;;;;;;;;5064806;28;20031;-46
2024/02/28 11:45:52;;;;;;;56.05;22.02;;;;;;;;;;5064996;28;20041;-52
2024/02/28 11:48:18;;;;;;;50.53;20.70;;;;;;;;;;5065202;28;20187;-53
2024/02/28 11:50:45;;;;;;;58.13;20.77;;;;;;;;;;5065131;28;20035;-42
2024/02/28 11:53:12;;;;;;;70.63;22.48;;;;;;;;;;5065324;28;20021;-42
2024/02/28 11:55:41;;;;;;;46.90;20.50;;;;;;;;;;5065448;28;20483;-46
2024/02/28 11:58:09;;;;;;;56.50;20.92;;;;;;;;;;5066543;28;20274;-42
2024/02/28 12:00:35;;;;;;;57.35;20.05;;;;;;;;;;5066730;28;20209;-43
2024/02/28 12:03:08;;;;;;;58.40;20.98;;;;;;;;;;5066563;28;20021;-41
2024/02/28 12:05:38;;;;;;;51.15;21.73;;;;;;;;;;5066626;28;20178;-43
2024/02/28 12:08:06;;;;;;;51.75;21.48;;;;;;;;;;5066664;28;20333;-48
2024/02/28 12:10:33;;;;;;;49.63;19.85;;;;;;;;;;5066740;28;20035;-51
2024/02/28 12:13:00;;;;;;;43.42;19.92;;;;;;;;;;5066600;28;20088;-42
2024/02/28 12:15:26;;;;;;;47.95;20.45;;;;;;;;;;5066677;28;20021;-51
2024/02/28 12:17:53;;;;;;;41.10;19.15;;;;;;;;;;5065942;28;20067;-44
2024/02/28 12:20:19;;;;;;;40.60;19.02;;;;;;;;;;5066284;28;20088;-44
2024/02/28 12:22:46;;;;;;;56.13;19.52;;;;;;;;;;5066178;28;20028;-50
2024/02/28 12:25:13;;;;;;;72.95;21.45;;;;;;;;;;5066293;28;20029;-41
2024/02/28 12:27:39;;;;;;;51.33;18.88;;;;;;;;;;5065979;28;20031;-45
2024/02/28 12:30:06;;;;;;;41.90;19.38;;;;;;;;;;5066262;28;20063;-47
2024/02/28 12:32:33;;;;;;;39.05;18.05;;;;;;;;;;5066020;28;20205;-44
2024/02/28 12:34:59;;;;;;;39.50;19.15;;;;;;;;;;5065980;28;20048;-46
2024/02/28 12:37:28;;;;;;;42.00;19.60;;;;;;;;;;5065995;28;20020;-53
2024/02/28 12:39:54;;;;;;;43.30;18.23;;;;;;;;;;5065825;28;20029;-48
2024/02/28 12:42:21;;;;;;;50.15;17.92;;;;;;;;;;5065728;28;20017;-42
2024/02/28 12:44:48;;;;;;;44.58;19.48;;;;;;;;;;5065608;28;20028;-39
2024/02/28 12:47:14;;;;;;;43.63;18.50;;;;;;;;;;5065796;28;20059;-44
2024/02/28 12:49:41;;;;;;;32.25;17.70;;;;;;;;;;5065954;28;20013;-40
2024/02/28 12:52:07;;;;;;;38.33;18.40;;;;;;;;;;5065771;28;20016;-47
2024/02/28 12:54:34;;;;;;;39.38;17.70;;;;;;;;;;5065783;28;20309;-46
2024/02/28 12:57:03;;;;;;;52.65;19.20;;;;;;;;;;5065454;28;20297;-41
2024/02/28 12:59:29;;;;;;;63.78;18.25;;;;;;;;;;5065486;28;20035;-46
2024/02/28 13:01:56;;;;;;;41.35;16.65;;;;;;;;;;5065476;28;20029;-48
2024/02/28 13:04:23;;;;;;;43.90;16.95;;;;;;;;;;5057949;28;20324;-44
2024/02/28 13:06:49;;;;;;;44.38;17.50;;;;;;;;;;5045851;28;20105;-43
2024/02/28 13:09:16;;;;;;;73.30;20.42;;;;;;;;;;5045499;28;20043;-43
2024/02/28 13:11:42;;;;;;;51.13;19.25;;;;;;;;;;5045730;28;20033;-47
2024/02/28 13:14:10;;;;;;;74.43;20.67;;;;;;;;;;5045429;28;20018;-39
2024/02/28 13:16:37;;;;;;;65.57;20.63;;;;;;;;;;5045660;28;20321;-40
2024/02/28 13:19:04;;;;;;;58.55;19.30;;;;;;;;;;5045494;28;20025;-47
2024/02/28 13:21:34;;;;;;;46.20;19.52;;;;;;;;;;5045601;28;20032;-47
2024/02/28 13:24:02;;;;;;;43.83;19.00;;;;;;;;;;5045573;28;20272;-42
2024/02/28 13:26:29;;;;;;;39.80;18.65;;;;;;;;;;5045302;28;20033;-46
2024/02/28 13:28:56;;;;;;;36.50;18.25;;;;;;;;;;5044929;28;20018;-46
2024/02/28 13:31:23;;;;;;;34.20;17.85;;;;;;;;;;5044842;28;20029;-50
2024/02/28 13:33:49;;;;;;;33.92;17.88;;;;;;;;;;5045996;28;20114;-48
2024/02/28 13:36:16;;;;;;;30.15;17.48;;;;;;;;;;5055010;28;20100;-47
2024/02/28 13:38:43;;;;;;;26.13;17.35;;;;;;;;;;5044819;28;20028;-46
2024/02/28 13:41:10;;;;;;;28.67;17.67;;;;;;;;;;5045022;28;20041;-41
2024/02/28 13:43:37;;;;;;;30.90;17.27;;;;;;;;;;5044798;28;20021;-40
2024/02/28 13:46:04;;;;;;;26.95;16.45;;;;;;;;;;5044591;28;20223;-45
2024/02/28 13:48:33;;;;;;;28.15;16.67;;;;;;;;;;5044581;28;20017;-47
2024/02/28 13:51:01;;;;;;;28.83;17.73;;;;;;;;;;5044957;28;20021;-44
2024/02/28 13:53:29;;;;;;;33.70;17.90;;;;;;;;;;5044577;28;20021;-40
2024/02/28 13:55:55;;;;;;;40.35;17.95;;;;;;;;;;5044986;28;20297;-40
2024/02/28 13:58:22;;;;;;;30.73;16.80;;;;;;;;;;5044608;28;20048;-41
2024/02/28 14:00:48;;;;;;;28.02;17.60;;;;;;;;;;5044708;28;20097;-39
2024/02/28 14:03:15;;;;;;;28.23;17.08;;;;;;;;;;5044253;28;20021;-41
2024/02/28 14:05:42;;;;;;;29.65;18.15;;;;;;;;;;5044598;28;20333;-41
2024/02/28 14:08:09;;;;;;;37.50;18.48;;;;;;;;;;5044364;28;20018;-42
2024/02/28 14:10:37;;;;;;;33.25;18.73;;;;;;;;;;5044297;28;20021;-45
2024/02/28 14:13:03;;;;;;;31.80;17.42;;;;;;;;;;5044276;28;20067;-49
2024/02/28 14:15:30;;;;;;;29.77;17.35;;;;;;;;;;5044413;28;20033;-51